createdAt,value
2022-09-21T00:02:34.409Z,95.60
2022-09-21T00:05:19.797Z,95.60
2022-09-21T00:08:06.607Z,95.80
2022-09-21T00:10:51.628Z,96.00
2022-09-21T00:13:37.759Z,96.00
2022-09-21T00:16:23.747Z,96.00
2022-09-21T00:19:10.441Z,96.10
2022-09-21T00:21:56.597Z,96.00
2022-09-21T00:24:41.757Z,96.00
2022-09-21T00:27:30.119Z,96.00
2022-09-21T00:30:15.406Z,96.10
2022-09-21T00:33:00.876Z,96.10
2022-09-21T00:35:47.065Z,96.10
2022-09-21T00:38:32.768Z,95.90
2022-09-21T00:41:18.641Z,96.10
2022-09-21T00:44:21.897Z,96.00
2022-09-21T00:47:11.873Z,95.80
2022-09-21T00:49:59.054Z,95.90
2022-09-21T00:52:49.603Z,96.10
2022-09-21T00:55:41.840Z,96.00
2022-09-21T00:58:31.391Z,96.20
2022-09-21T01:01:18.575Z,96.20
2022-09-21T01:04:05.496Z,96.10
2022-09-21T01:06:50.679Z,96.10
2022-09-21T01:09:36.290Z,96.00
2022-09-21T01:12:46.066Z,96.10
2022-09-21T01:16:01.920Z,96.20
2022-09-21T01:19:05.217Z,96.40
2022-09-21T01:22:29.283Z,96.50
2022-09-21T01:25:32.134Z,96.50
2022-09-21T01:28:36.885Z,96.40
2022-09-21T01:31:26.709Z,96.40
2022-09-21T01:34:29.951Z,96.50
2022-09-21T01:37:21.177Z,96.70
2022-09-21T01:40:15.269Z,96.80
2022-09-21T01:43:02.703Z,96.80
2022-09-21T01:45:52.733Z,96.70
2022-09-21T01:48:41.727Z,96.50
2022-09-21T01:51:28.715Z,96.60
2022-09-21T01:54:21.349Z,96.60
2022-09-21T01:57:45.662Z,96.70
2022-09-21T02:00:32.517Z,96.50
2022-09-21T02:03:28.189Z,96.60
2022-09-21T02:06:14.895Z,96.50
2022-09-21T02:09:00.589Z,96.70
2022-09-21T02:11:45.884Z,96.70
2022-09-21T02:14:33.902Z,96.40
2022-09-21T02:17:27.994Z,96.50
2022-09-21T02:20:28.345Z,96.60
2022-09-21T02:23:26.466Z,96.70
2022-09-21T02:26:21.214Z,96.70
2022-09-21T02:29:18.652Z,96.50
2022-09-21T02:32:14.314Z,96.60
2022-09-21T02:35:07.959Z,96.50
2022-09-21T02:38:02.418Z,96.60
2022-09-21T02:41:07.352Z,96.70
2022-09-21T02:43:58.590Z,96.40
2022-09-21T02:46:54.774Z,96.50
2022-09-21T02:49:46.450Z,96.20
2022-09-21T02:52:33.908Z,96.10
2022-09-21T02:55:19.486Z,95.60
2022-09-21T02:58:09.729Z,95.60
2022-09-21T03:00:56.952Z,95.40
2022-09-21T03:03:42.143Z,95.20
2022-09-21T03:06:28.038Z,95.40
2022-09-21T03:09:13.419Z,95.10
2022-09-21T03:11:58.594Z,94.80
2022-09-21T03:14:44.267Z,95.00
2022-09-21T03:17:29.850Z,95.00
2022-09-21T03:20:16.071Z,95.10
2022-09-21T03:23:01.769Z,95.50
2022-09-21T03:25:47.467Z,95.50
2022-09-21T03:28:32.566Z,95.50
2022-09-21T03:31:18.071Z,95.50
2022-09-21T03:34:03.288Z,95.40
2022-09-21T03:36:48.855Z,95.70
2022-09-21T03:39:33.941Z,95.60
2022-09-21T03:42:19.108Z,95.80
2022-09-21T03:45:05.068Z,95.90
2022-09-21T03:47:50.623Z,96.10
2022-09-21T03:50:36.314Z,96.00
2022-09-21T03:53:21.706Z,95.80
2022-09-21T03:56:07.188Z,96.10
2022-09-21T03:58:52.602Z,96.20
2022-09-21T04:01:38.538Z,95.70
2022-09-21T04:04:23.823Z,95.60
2022-09-21T04:07:09.176Z,95.90
2022-09-21T04:09:54.771Z,96.20
2022-09-21T04:12:44.338Z,96.70
2022-09-21T04:15:30.369Z,96.30
2022-09-21T04:18:15.401Z,96.30
2022-09-21T04:21:00.787Z,96.10
2022-09-21T04:23:47.006Z,96.20
2022-09-21T04:26:34.131Z,96.30
2022-09-21T04:29:19.444Z,96.20
2022-09-21T04:32:05.752Z,96.20
2022-09-21T04:34:51.490Z,96.30
2022-09-21T04:37:37.057Z,96.20
2022-09-21T04:40:23.269Z,95.90
2022-09-21T04:43:08.816Z,96.00
2022-09-21T04:45:53.862Z,96.20
2022-09-21T04:48:39.968Z,96.10
2022-09-21T04:51:25.445Z,96.00
2022-09-21T04:54:10.750Z,96.00
2022-09-21T04:56:55.853Z,96.10
2022-09-21T04:59:41.172Z,96.10
2022-09-21T05:02:26.753Z,95.90
2022-09-21T05:05:12.159Z,96.00
2022-09-21T05:07:57.765Z,96.10
2022-09-21T05:10:44.050Z,96.60
2022-09-21T05:13:29.104Z,99.90
2022-09-21T05:16:15.592Z,98.40
2022-09-21T05:19:00.851Z,97.00
2022-09-21T05:21:46.441Z,96.50
2022-09-21T05:24:31.606Z,96.10
2022-09-21T05:27:16.972Z,95.80
2022-09-21T05:30:02.687Z,95.50
2022-09-21T05:32:48.904Z,95.50
2022-09-21T05:35:42.088Z,95.30
2022-09-21T05:38:27.847Z,94.90
2022-09-21T05:41:13.597Z,95.00
2022-09-21T05:43:59.045Z,94.60
2022-09-21T05:46:56.332Z,94.40
2022-09-21T05:49:52.814Z,94.90
2022-09-21T05:53:20.166Z,94.50
2022-09-21T05:56:47.315Z,94.80
2022-09-21T05:59:54.684Z,94.70
2022-09-21T06:03:17.550Z,94.60
2022-09-21T06:06:03.666Z,94.50
2022-09-21T06:08:49.146Z,94.40
2022-09-21T06:11:34.662Z,94.10
2022-09-21T06:14:24.593Z,93.90
2022-09-21T06:17:09.865Z,93.80
2022-09-21T06:19:55.194Z,93.80
2022-09-21T06:22:40.611Z,93.70
2022-09-21T06:25:26.108Z,93.50
2022-09-21T06:28:12.997Z,93.60
2022-09-21T06:30:58.944Z,93.70
2022-09-21T06:33:48.027Z,93.90
2022-09-21T06:36:33.617Z,93.90
2022-09-21T06:39:19.053Z,94.20
2022-09-21T06:42:04.452Z,94.60
2022-09-21T06:44:49.849Z,94.50
2022-09-21T06:47:35.219Z,94.70
2022-09-21T06:50:21.190Z,94.90
2022-09-21T06:53:07.002Z,95.20
2022-09-21T06:55:52.573Z,95.30
2022-09-21T06:58:38.629Z,95.20
2022-09-21T07:01:24.647Z,95.60
2022-09-21T07:04:09.811Z,95.50
2022-09-21T07:06:55.520Z,95.90
2022-09-21T07:12:45.599Z,95.50
2022-09-21T07:15:31.154Z,96.20
2022-09-21T07:18:16.188Z,96.20
2022-09-21T07:21:09.868Z,96.50
2022-09-21T07:23:55.220Z,96.40
2022-09-21T07:26:40.983Z,96.50
2022-09-21T07:29:25.913Z,96.70
2022-09-21T07:32:13.407Z,96.80
2022-09-21T07:34:58.774Z,96.90
2022-09-21T07:37:44.154Z,97.10
2022-09-21T07:40:29.937Z,96.90
2022-09-21T07:43:15.939Z,97.10
2022-09-21T07:46:04.176Z,97.10
2022-09-21T07:48:49.292Z,97.20
2022-09-21T07:51:34.731Z,97.00
2022-09-21T07:54:20.098Z,97.40
2022-09-21T07:57:24.038Z,97.20
2022-09-21T08:00:10.083Z,97.50
2022-09-21T08:02:55.084Z,97.80
2022-09-21T08:05:40.408Z,97.60
2022-09-21T08:08:25.884Z,97.90
2022-09-21T08:11:11.830Z,97.80
2022-09-21T08:13:59.715Z,97.80
2022-09-21T08:16:47.070Z,97.80
2022-09-21T08:19:33.088Z,97.60
2022-09-21T08:22:18.836Z,97.30
2022-09-21T08:25:04.869Z,96.90
2022-09-21T08:27:50.154Z,97.00
2022-09-21T08:30:35.542Z,96.70
2022-09-21T08:33:20.878Z,96.60
2022-09-21T08:36:06.804Z,96.30
2022-09-21T08:38:52.273Z,96.20
2022-09-21T08:42:04.354Z,96.40
2022-09-21T08:44:58.355Z,96.50
2022-09-21T08:47:54.464Z,96.80
2022-09-21T08:50:48.425Z,96.60
2022-09-21T08:53:39.218Z,96.40
2022-09-21T08:56:41.562Z,96.20
2022-09-21T08:59:31.679Z,96.20
2022-09-21T09:02:37.741Z,96.40
2022-09-21T09:05:25.883Z,96.50
2022-09-21T09:08:28.328Z,96.70
2022-09-21T09:11:29.479Z,96.60
2022-09-21T09:14:38.610Z,96.70
2022-09-21T09:17:50.065Z,96.40
2022-09-21T09:20:41.002Z,96.60
2022-09-21T09:23:29.861Z,96.40
2022-09-21T09:26:28.213Z,96.90
2022-09-21T09:29:29.257Z,96.80
2022-09-21T09:32:15.864Z,97.00
2022-09-21T09:35:24.022Z,96.70
2022-09-21T09:38:37.849Z,96.70
2022-09-21T09:42:00.932Z,96.60
2022-09-21T09:45:19.788Z,96.60
2022-09-21T09:48:28.183Z,96.60
2022-09-21T09:51:13.708Z,96.20
2022-09-21T09:54:00.985Z,96.20
2022-09-21T09:56:46.491Z,97.00
2022-09-21T09:59:43.037Z,95.60
2022-09-21T10:02:29.093Z,96.60
2022-09-21T10:05:42.359Z,96.30
2022-09-21T10:08:49.107Z,95.60
2022-09-21T10:11:37.094Z,95.10
2022-09-21T10:14:25.184Z,95.30
2022-09-21T10:17:17.538Z,94.30
2022-09-21T10:20:04.192Z,95.50
2022-09-21T10:22:55.318Z,95.00
2022-09-21T10:25:42.099Z,95.40
2022-09-21T10:28:28.366Z,94.20
2022-09-21T10:31:20.853Z,94.00
2022-09-21T10:34:16.396Z,94.40
2022-09-21T10:37:22.782Z,94.10
2022-09-21T10:40:20.550Z,94.10
2022-09-21T10:43:06.215Z,94.20
2022-09-21T10:45:55.462Z,93.70
2022-09-21T10:48:45.918Z,93.50
2022-09-21T10:51:31.837Z,93.80
2022-09-21T10:54:30.230Z,94.30
2022-09-21T10:57:18.227Z,94.40
2022-09-21T11:00:22.077Z,94.10
2022-09-21T11:03:30.176Z,94.70
2022-09-21T11:06:27.874Z,94.20
2022-09-21T11:09:20.465Z,93.70
2022-09-21T11:12:35.696Z,93.40
2022-09-21T11:15:33.776Z,91.60
2022-09-21T11:18:26.355Z,91.80
2022-09-21T11:21:22.780Z,92.10
2022-09-21T11:24:36.720Z,92.50
2022-09-21T11:27:27.274Z,90.70
2022-09-21T11:30:15.458Z,89.90
2022-09-21T11:33:31.718Z,90.20
2022-09-21T11:36:42.660Z,88.10
2022-09-21T11:39:31.127Z,88.70
2022-09-21T11:42:22.112Z,87.20
2022-09-21T11:45:25.807Z,86.90
2022-09-21T11:48:16.782Z,87.40
2022-09-21T11:51:27.259Z,85.80
2022-09-21T11:54:46.597Z,89.00
2022-09-21T11:57:45.512Z,88.70
2022-09-21T12:00:40.695Z,89.50
2022-09-21T12:03:46.153Z,89.40
2022-09-21T12:06:46.921Z,88.70
2022-09-21T12:09:44.045Z,90.00
2022-09-21T12:12:37.999Z,90.60
2022-09-21T12:15:32.268Z,90.40
2022-09-21T12:18:53.097Z,90.20
2022-09-21T12:21:44.060Z,90.80
2022-09-21T12:24:40.124Z,90.90
2022-09-21T12:27:42.513Z,90.90
2022-09-21T12:30:29.880Z,91.20
2022-09-21T12:33:37.721Z,91.60
2022-09-21T12:36:40.967Z,91.30
2022-09-21T12:39:41.374Z,91.20
2022-09-21T12:42:53.778Z,90.60
2022-09-21T12:45:48.032Z,91.30
2022-09-21T12:48:36.440Z,90.90
2022-09-21T12:51:29.318Z,91.40
2022-09-21T12:54:26.808Z,91.30
2022-09-21T12:57:58.532Z,90.70
2022-09-21T13:01:14.317Z,90.20
2022-09-21T13:04:03.970Z,89.20
2022-09-21T13:06:55.450Z,88.10
2022-09-21T13:09:43.791Z,86.00
2022-09-21T13:12:34.772Z,82.50
2022-09-21T13:15:30.238Z,82.30
2022-09-21T13:18:35.753Z,80.70
2022-09-21T13:21:26.779Z,80.70
2022-09-21T13:24:29.311Z,78.00
2022-09-21T13:27:15.947Z,73.40
2022-09-21T13:30:29.270Z,74.60
2022-09-21T13:33:20.403Z,79.20
2022-09-21T13:36:30.055Z,81.70
2022-09-21T13:39:19.511Z,83.10
2022-09-21T13:42:29.696Z,83.30
2022-09-21T13:45:21.316Z,84.60
2022-09-21T13:48:18.944Z,85.20
2022-09-21T13:51:09.149Z,85.10
2022-09-21T13:53:59.942Z,85.60
2022-09-21T13:56:45.714Z,85.80
2022-09-21T13:59:33.211Z,85.90
2022-09-21T14:02:32.492Z,87.10
2022-09-21T14:05:49.076Z,86.60
2022-09-21T14:08:38.981Z,85.90
2022-09-21T14:11:36.318Z,85.90
2022-09-21T14:14:30.248Z,84.50
2022-09-21T14:17:35.811Z,84.30
2022-09-21T14:20:37.221Z,83.90
2022-09-21T14:23:24.022Z,82.90
2022-09-21T14:26:35.928Z,82.80
2022-09-21T14:29:39.105Z,84.00
2022-09-21T14:32:27.712Z,84.60
2022-09-21T14:35:20.430Z,82.50
2022-09-21T14:38:19.567Z,82.60
2022-09-21T14:41:07.752Z,83.00
2022-09-21T14:43:56.795Z,84.20
2022-09-21T14:46:56.999Z,82.90
2022-09-21T14:50:19.898Z,84.10
2022-09-21T14:53:09.242Z,81.30
2022-09-21T14:56:34.793Z,79.20
2022-09-21T14:59:50.054Z,79.80
2022-09-21T15:02:37.161Z,79.10
2022-09-21T15:05:37.677Z,79.50
2022-09-21T15:09:12.143Z,78.10
2022-09-21T15:12:09.343Z,78.60
2022-09-21T15:15:00.742Z,76.70
2022-09-21T15:17:59.280Z,77.10
2022-09-21T15:20:44.658Z,76.20
2022-09-21T15:23:39.180Z,78.00
2022-09-21T15:26:29.162Z,77.10
2022-09-21T15:29:28.890Z,78.00
2022-09-21T15:32:34.441Z,75.70
2022-09-21T15:35:27.657Z,76.00
2022-09-21T15:38:31.812Z,74.80
2022-09-21T15:41:40.123Z,76.20
2022-09-21T15:44:33.055Z,76.40
2022-09-21T15:47:21.953Z,74.70
2022-09-21T15:50:13.072Z,77.40
2022-09-21T15:53:04.704Z,76.50
2022-09-21T15:55:50.540Z,74.90
2022-09-21T15:58:38.175Z,76.30
2022-09-21T16:01:23.600Z,77.70
2022-09-21T16:04:12.125Z,76.80
2022-09-21T16:07:24.258Z,76.70
2022-09-21T16:10:37.364Z,76.70
2022-09-21T16:13:44.199Z,77.20
2022-09-21T16:16:29.596Z,77.70
2022-09-21T16:19:17.225Z,77.30
2022-09-21T16:22:05.413Z,78.00
2022-09-21T16:24:55.306Z,77.90
2022-09-21T16:27:58.885Z,76.50
2022-09-21T16:30:52.368Z,76.50
2022-09-21T16:33:40.867Z,79.30
2022-09-21T16:36:26.462Z,80.60
2022-09-21T16:39:15.482Z,80.80
2022-09-21T16:42:05.401Z,82.30
2022-09-21T16:44:50.861Z,83.40
2022-09-21T16:47:37.687Z,84.00
2022-09-21T16:50:24.203Z,82.60
2022-09-21T16:53:09.637Z,82.90
2022-09-21T16:55:55.142Z,83.20
2022-09-21T16:58:43.566Z,84.00
2022-09-21T17:01:29.030Z,84.50
2022-09-21T17:04:14.389Z,85.20
2022-09-21T17:07:00.776Z,85.70
2022-09-21T17:09:47.731Z,85.60
2022-09-21T17:12:33.382Z,86.00
2022-09-21T17:15:20.243Z,86.00
2022-09-21T17:18:06.347Z,86.30
2022-09-21T17:20:51.602Z,86.90
2022-09-21T17:23:37.022Z,86.10
2022-09-21T17:26:22.410Z,85.60
2022-09-21T17:29:28.010Z,85.80
2022-09-21T17:32:14.583Z,85.90
2022-09-21T17:35:18.841Z,86.50
2022-09-21T17:38:04.023Z,86.40
2022-09-21T17:40:50.290Z,86.80
2022-09-21T17:43:54.948Z,86.80
2022-09-21T17:47:08.645Z,86.60
2022-09-21T17:49:54.218Z,86.60
2022-09-21T17:52:59.456Z,86.80
2022-09-21T17:55:52.856Z,86.90
2022-09-21T17:58:56.941Z,87.00
2022-09-21T18:01:42.480Z,86.80
2022-09-21T18:04:34.737Z,86.70
2022-09-21T18:07:20.586Z,87.10
2022-09-21T18:10:07.187Z,87.50
2022-09-21T18:13:28.936Z,87.80
2022-09-21T18:16:23.147Z,88.20
2022-09-21T18:19:27.488Z,88.50
2022-09-21T18:22:38.106Z,88.40
2022-09-21T18:25:31.883Z,88.90
2022-09-21T18:28:35.117Z,88.90
2022-09-21T18:31:58.346Z,89.10
2022-09-21T18:34:51.953Z,89.50
2022-09-21T18:37:48.466Z,89.80
2022-09-21T18:40:54.454Z,90.00
2022-09-21T18:44:11.178Z,89.80
2022-09-21T18:47:35.048Z,89.50
2022-09-21T18:50:33.371Z,90.00
2022-09-21T18:53:50.070Z,90.30
2022-09-21T18:56:37.805Z,90.00
2022-09-21T18:59:23.196Z,90.10
2022-09-21T19:02:14.028Z,90.20
2022-09-21T19:04:59.652Z,90.40
2022-09-21T19:07:58.051Z,90.50
2022-09-21T19:10:50.869Z,90.30
2022-09-21T19:14:01.608Z,90.40
2022-09-21T19:17:32.028Z,90.50
2022-09-21T19:20:49.754Z,90.50
2022-09-21T19:23:58.984Z,90.50
2022-09-21T19:27:22.812Z,90.60
2022-09-21T19:30:12.076Z,90.70
2022-09-21T19:33:02.862Z,90.40
2022-09-21T19:35:48.122Z,90.50
2022-09-21T19:38:34.233Z,90.70
2022-09-21T19:41:32.781Z,90.90
2022-09-21T19:44:31.125Z,90.70
2022-09-21T19:47:29.751Z,90.80
2022-09-21T19:50:29.822Z,90.70
2022-09-21T19:53:34.355Z,90.60
2022-09-21T19:56:38.477Z,90.50
2022-09-21T19:59:42.472Z,90.90
2022-09-21T20:02:34.007Z,90.80
2022-09-21T20:05:48.568Z,90.90
2022-09-21T20:08:44.184Z,90.80
2022-09-21T20:11:47.395Z,91.10
2022-09-21T20:15:00.482Z,91.10
2022-09-21T20:17:51.187Z,91.50
2022-09-21T20:20:37.445Z,91.40
2022-09-21T20:23:22.779Z,91.40
2022-09-21T20:26:25.050Z,91.20
2022-09-21T20:29:11.194Z,91.10
2022-09-21T20:31:56.503Z,91.10
2022-09-21T20:34:41.672Z,91.00
2022-09-21T20:37:27.310Z,91.00
2022-09-21T20:40:13.608Z,91.00
2022-09-21T20:43:00.891Z,91.20
2022-09-21T20:45:49.358Z,91.30
2022-09-21T20:48:35.942Z,91.40
2022-09-21T20:51:21.730Z,91.50
2022-09-21T20:54:07.070Z,91.40
2022-09-21T20:56:52.527Z,91.30
2022-09-21T20:59:38.184Z,91.30
2022-09-21T21:02:23.727Z,91.50
2022-09-21T21:05:11.133Z,91.30
2022-09-21T21:07:57.390Z,91.50
2022-09-21T21:10:46.773Z,91.50
2022-09-21T21:13:32.758Z,91.50
2022-09-21T21:16:17.985Z,91.70
2022-09-21T21:19:04.244Z,91.30
2022-09-21T21:21:49.323Z,91.20
2022-09-21T21:24:40.810Z,91.30
2022-09-21T21:27:26.585Z,91.20
2022-09-21T21:30:12.436Z,91.50
2022-09-21T21:32:57.970Z,91.50
2022-09-21T21:35:43.160Z,91.60
2022-09-21T21:38:28.587Z,91.60
2022-09-21T21:41:14.824Z,91.50
2022-09-21T21:44:00.175Z,91.50
2022-09-21T21:46:45.627Z,91.60
2022-09-21T21:49:31.150Z,91.80
2022-09-21T21:52:16.303Z,92.30
2022-09-21T21:55:02.296Z,91.90
2022-09-21T21:57:47.570Z,91.90
2022-09-21T22:00:33.075Z,91.70
2022-09-21T22:03:18.365Z,91.80
2022-09-21T22:06:04.914Z,91.90
2022-09-21T22:08:51.755Z,91.50
2022-09-21T22:11:37.848Z,91.50
2022-09-21T22:14:23.028Z,91.50
2022-09-21T22:17:08.423Z,91.80
2022-09-21T22:19:54.993Z,91.90
2022-09-21T22:22:40.851Z,91.80
2022-09-21T22:25:25.975Z,91.70
2022-09-21T22:28:11.438Z,91.80
2022-09-21T22:30:56.637Z,92.00
2022-09-21T22:33:43.190Z,91.50
2022-09-21T22:36:33.567Z,91.80
2022-09-21T22:39:18.615Z,91.80
2022-09-21T22:42:04.103Z,91.90
2022-09-21T22:44:49.668Z,92.00
2022-09-21T22:47:34.964Z,91.80
2022-09-21T22:50:20.303Z,91.70
2022-09-21T22:53:05.581Z,91.90
2022-09-21T22:56:11.270Z,92.20
2022-09-21T22:58:59.027Z,92.20
2022-09-21T23:01:44.693Z,92.00
2022-09-21T23:04:30.017Z,91.70
2022-09-21T23:07:16.941Z,91.70
2022-09-21T23:10:02.230Z,91.80
2022-09-21T23:12:50.081Z,91.80
2022-09-21T23:15:35.171Z,91.70
2022-09-21T23:18:21.129Z,91.40
2022-09-21T23:21:10.622Z,91.60
2022-09-21T23:23:59.803Z,91.50
2022-09-21T23:26:46.141Z,91.70
2022-09-21T23:29:31.389Z,91.60
2022-09-21T23:32:17.102Z,91.80
2022-09-21T23:35:02.418Z,91.80
2022-09-21T23:37:47.990Z,91.90
2022-09-21T23:40:33.492Z,91.50
2022-09-21T23:43:18.648Z,91.60
2022-09-21T23:46:05.005Z,92.10
2022-09-21T23:48:50.636Z,91.70
2022-09-21T23:51:36.549Z,91.90
2022-09-21T23:54:22.530Z,91.90
2022-09-21T23:57:07.771Z,91.90
2022-09-21T23:59:53.088Z,91.90
